sensor_id;sensor_type;location;lat;lon;timestamp;P1;durP1;ratioP1;P2;durP2;ratioP2
26860;SDS011;37676;46.956;7.430;2022-09-03T00:04:55;1.33;;;0.60;;
26860;SDS011;37676;46.956;7.430;2022-09-03T00:07:41;1.70;;;0.77;;
26860;SDS011;37676;46.956;7.430;2022-09-03T00:10:19;1.10;;;0.50;;
26860;SDS011;37676;46.956;7.430;2022-09-03T00:12:49;1.75;;;0.70;;
26860;SDS011;37676;46.956;7.430;2022-09-03T00:15:21;1.15;;;0.60;;
26860;SDS011;37676;46.956;7.430;2022-09-03T00:22:56;1.58;;;0.50;;
26860;SDS011;37676;46.956;7.430;2022-09-03T00:25:26;1.15;;;0.50;;
26860;SDS011;37676;46.956;7.430;2022-09-03T00:28:01;1.05;;;0.50;;
26860;SDS011;37676;46.956;7.430;2022-09-03T00:30:33;1.92;;;0.65;;
26860;SDS011;37676;46.956;7.430;2022-09-03T00:33:18;1.17;;;0.50;;
26860;SDS011;37676;46.956;7.430;2022-09-03T00:38:29;0.90;;;0.50;;
26860;SDS011;37676;46.956;7.430;2022-09-03T00:43:52;0.93;;;0.50;;
26860;SDS011;37676;46.956;7.430;2022-09-03T00:51:54;1.77;;;0.70;;
26860;SDS011;37676;46.956;7.430;2022-09-03T01:00:42;1.02;;;0.50;;
26860;SDS011;37676;46.956;7.430;2022-09-03T01:03:10;1.55;;;0.70;;
26860;SDS011;37676;46.956;7.430;2022-09-03T01:16:19;1.42;;;0.70;;
26860;SDS011;37676;46.956;7.430;2022-09-03T01:21:53;1.63;;;0.70;;
26860;SDS011;37676;46.956;7.430;2022-09-03T01:27:02;1.75;;;0.85;;
26860;SDS011;37676;46.956;7.430;2022-09-03T01:29:44;1.70;;;0.98;;
26860;SDS011;37676;46.956;7.430;2022-09-03T01:35:20;1.27;;;0.70;;
26860;SDS011;37676;46.956;7.430;2022-09-03T01:40:42;2.65;;;1.50;;
26860;SDS011;37676;46.956;7.430;2022-09-03T01:46:18;2.10;;;1.20;;
26860;SDS011;37676;46.956;7.430;2022-09-03T01:48:59;2.28;;;1.23;;
26860;SDS011;37676;46.956;7.430;2022-09-03T01:51:36;2.05;;;1.20;;
26860;SDS011;37676;46.956;7.430;2022-09-03T01:57:12;1.80;;;1.00;;
26860;SDS011;37676;46.956;7.430;2022-09-03T02:00:00;2.50;;;1.25;;
26860;SDS011;37676;46.956;7.430;2022-09-03T02:02:34;3.03;;;1.58;;
26860;SDS011;37676;46.956;7.430;2022-09-03T02:05:03;1.90;;;0.85;;
26860;SDS011;37676;46.956;7.430;2022-09-03T02:07:33;1.55;;;0.80;;
26860;SDS011;37676;46.956;7.430;2022-09-03T02:10:01;1.92;;;0.95;;
26860;SDS011;37676;46.956;7.430;2022-09-03T02:12:30;1.83;;;0.70;;
26860;SDS011;37676;46.956;7.430;2022-09-03T02:14:58;1.13;;;0.60;;
26860;SDS011;37676;46.956;7.430;2022-09-03T02:17:30;0.90;;;0.50;;
26860;SDS011;37676;46.956;7.430;2022-09-03T02:19:57;1.20;;;0.70;;
26860;SDS011;37676;46.956;7.430;2022-09-03T02:22:22;1.90;;;0.85;;
26860;SDS011;37676;46.956;7.430;2022-09-03T02:24:48;1.40;;;0.60;;
26860;SDS011;37676;46.956;7.430;2022-09-03T02:27:13;1.25;;;0.52;;
26860;SDS011;37676;46.956;7.430;2022-09-03T02:29:39;3.17;;;0.70;;
26860;SDS011;37676;46.956;7.430;2022-09-03T02:32:05;2.10;;;0.60;;
26860;SDS011;37676;46.956;7.430;2022-09-03T02:34:30;0.85;;;0.50;;
26860;SDS011;37676;46.956;7.430;2022-09-03T02:36:55;1.15;;;0.47;;
26860;SDS011;37676;46.956;7.430;2022-09-03T02:39:21;1.55;;;0.73;;
26860;SDS011;37676;46.956;7.430;2022-09-03T02:41:49;1.42;;;0.80;;
26860;SDS011;37676;46.956;7.430;2022-09-03T02:44:20;1.40;;;0.63;;
26860;SDS011;37676;46.956;7.430;2022-09-03T02:46:58;0.60;;;0.40;;
26860;SDS011;37676;46.956;7.430;2022-09-03T02:49:26;1.30;;;0.50;;
26860;SDS011;37676;46.956;7.430;2022-09-03T02:51:56;1.13;;;0.50;;
26860;SDS011;37676;46.956;7.430;2022-09-03T02:54:22;1.15;;;0.52;;
26860;SDS011;37676;46.956;7.430;2022-09-03T02:56:48;0.85;;;0.50;;
26860;SDS011;37676;46.956;7.430;2022-09-03T02:59:13;1.85;;;0.80;;
26860;SDS011;37676;46.956;7.430;2022-09-03T03:01:39;0.90;;;0.50;;
26860;SDS011;37676;46.956;7.430;2022-09-03T03:04:04;1.10;;;0.50;;
26860;SDS011;37676;46.956;7.430;2022-09-03T03:06:29;0.90;;;0.40;;
26860;SDS011;37676;46.956;7.430;2022-09-03T03:08:55;1.00;;;0.40;;
26860;SDS011;37676;46.956;7.430;2022-09-03T03:11:21;0.75;;;0.40;;
26860;SDS011;37676;46.956;7.430;2022-09-03T03:13:48;1.38;;;0.70;;
26860;SDS011;37676;46.956;7.430;2022-09-03T03:16:14;0.60;;;0.40;;
26860;SDS011;37676;46.956;7.430;2022-09-03T03:18:40;0.93;;;0.40;;
26860;SDS011;37676;46.956;7.430;2022-09-03T03:21:08;1.13;;;0.60;;
26860;SDS011;37676;46.956;7.430;2022-09-03T03:23:35;1.45;;;0.60;;
26860;SDS011;37676;46.956;7.430;2022-09-03T03:26:03;0.95;;;0.38;;
26860;SDS011;37676;46.956;7.430;2022-09-03T03:28:30;1.52;;;0.70;;
26860;SDS011;37676;46.956;7.430;2022-09-03T03:30:57;1.55;;;0.60;;
26860;SDS011;37676;46.956;7.430;2022-09-03T03:33:23;0.80;;;0.43;;
26860;SDS011;37676;46.956;7.430;2022-09-03T03:35:49;1.67;;;0.63;;
26860;SDS011;37676;46.956;7.430;2022-09-03T03:38:14;1.58;;;0.75;;
26860;SDS011;37676;46.956;7.430;2022-09-03T03:40:40;1.92;;;0.90;;
26860;SDS011;37676;46.956;7.430;2022-09-03T03:43:05;1.55;;;0.68;;
26860;SDS011;37676;46.956;7.430;2022-09-03T03:45:30;1.67;;;0.57;;
26860;SDS011;37676;46.956;7.430;2022-09-03T03:47:56;0.90;;;0.50;;
26860;SDS011;37676;46.956;7.430;2022-09-03T03:50:23;1.45;;;0.60;;
26860;SDS011;37676;46.956;7.430;2022-09-03T03:52:48;1.35;;;0.60;;
26860;SDS011;37676;46.956;7.430;2022-09-03T03:55:13;1.00;;;0.60;;
26860;SDS011;37676;46.956;7.430;2022-09-03T03:57:39;1.27;;;0.70;;
26860;SDS011;37676;46.956;7.430;2022-09-03T04:00:05;1.35;;;0.60;;
26860;SDS011;37676;46.956;7.430;2022-09-03T04:02:30;1.05;;;0.40;;
26860;SDS011;37676;46.956;7.430;2022-09-03T04:04:56;1.10;;;0.60;;
26860;SDS011;37676;46.956;7.430;2022-09-03T04:07:21;1.42;;;0.77;;
26860;SDS011;37676;46.956;7.430;2022-09-03T04:09:46;1.98;;;0.65;;
26860;SDS011;37676;46.956;7.430;2022-09-03T04:12:13;1.10;;;0.57;;
26860;SDS011;37676;46.956;7.430;2022-09-03T04:14:38;1.13;;;0.50;;
26860;SDS011;37676;46.956;7.430;2022-09-03T04:17:03;1.23;;;0.70;;
26860;SDS011;37676;46.956;7.430;2022-09-03T04:19:29;2.55;;;0.50;;
26860;SDS011;37676;46.956;7.430;2022-09-03T04:21:54;0.93;;;0.45;;
26860;SDS011;37676;46.956;7.430;2022-09-03T04:24:20;0.93;;;0.50;;
26860;SDS011;37676;46.956;7.430;2022-09-03T04:26:45;1.10;;;0.50;;
26860;SDS011;37676;46.956;7.430;2022-09-03T04:29:11;0.75;;;0.40;;
26860;SDS011;37676;46.956;7.430;2022-09-03T04:31:36;1.17;;;0.60;;
26860;SDS011;37676;46.956;7.430;2022-09-03T04:34:03;0.80;;;0.50;;
26860;SDS011;37676;46.956;7.430;2022-09-03T04:36:31;1.10;;;0.50;;
26860;SDS011;37676;46.956;7.430;2022-09-03T04:38:59;0.82;;;0.40;;
26860;SDS011;37676;46.956;7.430;2022-09-03T04:41:26;1.65;;;0.90;;
26860;SDS011;37676;46.956;7.430;2022-09-03T04:43:54;1.45;;;0.70;;
26860;SDS011;37676;46.956;7.430;2022-09-03T04:46:21;1.50;;;0.68;;
26860;SDS011;37676;46.956;7.430;2022-09-03T04:48:50;1.38;;;0.70;;
26860;SDS011;37676;46.956;7.430;2022-09-03T04:51:22;1.65;;;0.68;;
26860;SDS011;37676;46.956;7.430;2022-09-03T04:53:52;1.23;;;0.60;;
26860;SDS011;37676;46.956;7.430;2022-09-03T04:56:21;1.00;;;0.50;;
26860;SDS011;37676;46.956;7.430;2022-09-03T04:58:52;1.08;;;0.63;;
26860;SDS011;37676;46.956;7.430;2022-09-03T05:01:20;1.00;;;0.60;;
26860;SDS011;37676;46.956;7.430;2022-09-03T05:03:47;1.77;;;0.80;;
26860;SDS011;37676;46.956;7.430;2022-09-03T05:06:13;1.52;;;0.77;;
26860;SDS011;37676;46.956;7.430;2022-09-03T05:08:41;1.42;;;0.70;;
26860;SDS011;37676;46.956;7.430;2022-09-03T05:11:07;1.00;;;0.60;;
26860;SDS011;37676;46.956;7.430;2022-09-03T05:13:34;1.45;;;0.60;;
26860;SDS011;37676;46.956;7.430;2022-09-03T05:16:04;1.55;;;0.60;;
26860;SDS011;37676;46.956;7.430;2022-09-03T05:18:31;1.40;;;0.70;;
26860;SDS011;37676;46.956;7.430;2022-09-03T05:21:00;1.45;;;0.50;;
26860;SDS011;37676;46.956;7.430;2022-09-03T05:23:27;0.80;;;0.40;;
26860;SDS011;37676;46.956;7.430;2022-09-03T05:25:55;0.93;;;0.47;;
26860;SDS011;37676;46.956;7.430;2022-09-03T05:28:22;0.93;;;0.50;;
26860;SDS011;37676;46.956;7.430;2022-09-03T05:30:56;1.58;;;0.80;;
26860;SDS011;37676;46.956;7.430;2022-09-03T05:33:25;1.88;;;0.98;;
26860;SDS011;37676;46.956;7.430;2022-09-03T05:35:52;1.80;;;0.90;;
26860;SDS011;37676;46.956;7.430;2022-09-03T05:38:17;4.00;;;1.35;;
26860;SDS011;37676;46.956;7.430;2022-09-03T05:40:43;2.70;;;1.10;;
26860;SDS011;37676;46.956;7.430;2022-09-03T05:43:08;1.95;;;1.00;;
26860;SDS011;37676;46.956;7.430;2022-09-03T05:45:34;2.95;;;1.65;;
26860;SDS011;37676;46.956;7.430;2022-09-03T05:48:00;2.35;;;1.38;;
26860;SDS011;37676;46.956;7.430;2022-09-03T05:50:26;2.60;;;1.35;;
26860;SDS011;37676;46.956;7.430;2022-09-03T05:52:51;3.10;;;0.88;;
26860;SDS011;37676;46.956;7.430;2022-09-03T05:55:17;1.88;;;0.77;;
26860;SDS011;37676;46.956;7.430;2022-09-03T05:57:43;1.58;;;0.75;;
26860;SDS011;37676;46.956;7.430;2022-09-03T06:00:10;1.00;;;0.60;;
26860;SDS011;37676;46.956;7.430;2022-09-03T06:02:35;1.85;;;0.88;;
26860;SDS011;37676;46.956;7.430;2022-09-03T06:05:01;1.52;;;0.75;;
26860;SDS011;37676;46.956;7.430;2022-09-03T06:07:26;1.75;;;0.90;;
26860;SDS011;37676;46.956;7.430;2022-09-03T06:09:51;1.40;;;0.80;;
26860;SDS011;37676;46.956;7.430;2022-09-03T06:12:18;2.00;;;1.00;;
26860;SDS011;37676;46.956;7.430;2022-09-03T06:14:43;3.13;;;1.25;;
26860;SDS011;37676;46.956;7.430;2022-09-03T06:17:09;2.33;;;1.20;;
26860;SDS011;37676;46.956;7.430;2022-09-03T06:19:35;2.10;;;1.08;;
26860;SDS011;37676;46.956;7.430;2022-09-03T06:22:00;2.15;;;1.23;;
26860;SDS011;37676;46.956;7.430;2022-09-03T06:24:26;3.08;;;1.30;;
26860;SDS011;37676;46.956;7.430;2022-09-03T06:26:53;2.42;;;1.30;;
26860;SDS011;37676;46.956;7.430;2022-09-03T06:29:19;1.50;;;0.70;;
26860;SDS011;37676;46.956;7.430;2022-09-03T06:31:45;2.53;;;1.15;;
26860;SDS011;37676;46.956;7.430;2022-09-03T06:34:12;2.15;;;1.17;;
26860;SDS011;37676;46.956;7.430;2022-09-03T06:36:37;3.08;;;1.58;;
26860;SDS011;37676;46.956;7.430;2022-09-03T06:39:03;2.38;;;1.35;;
26860;SDS011;37676;46.956;7.430;2022-09-03T06:41:29;2.08;;;1.17;;
26860;SDS011;37676;46.956;7.430;2022-09-03T06:43:58;2.63;;;1.27;;
26860;SDS011;37676;46.956;7.430;2022-09-03T06:46:27;2.08;;;0.88;;
26860;SDS011;37676;46.956;7.430;2022-09-03T06:48:53;2.13;;;0.80;;
26860;SDS011;37676;46.956;7.430;2022-09-03T06:51:20;1.20;;;0.65;;
26860;SDS011;37676;46.956;7.430;2022-09-03T06:53:49;1.17;;;0.60;;
26860;SDS011;37676;46.956;7.430;2022-09-03T06:56:20;1.92;;;0.93;;
26860;SDS011;37676;46.956;7.430;2022-09-03T07:01:17;4.00;;;1.40;;
26860;SDS011;37676;46.956;7.430;2022-09-03T07:03:44;1.50;;;0.80;;
26860;SDS011;37676;46.956;7.430;2022-09-03T07:06:15;1.45;;;0.82;;
26860;SDS011;37676;46.956;7.430;2022-09-03T07:08:42;3.38;;;1.00;;
26860;SDS011;37676;46.956;7.430;2022-09-03T07:11:10;3.03;;;1.80;;
26860;SDS011;37676;46.956;7.430;2022-09-03T07:13:37;2.83;;;1.00;;
26860;SDS011;37676;46.956;7.430;2022-09-03T07:16:09;1.70;;;0.75;;
26860;SDS011;37676;46.956;7.430;2022-09-03T07:18:36;1.60;;;0.80;;
26860;SDS011;37676;46.956;7.430;2022-09-03T07:21:03;1.60;;;0.82;;
26860;SDS011;37676;46.956;7.430;2022-09-03T07:23:31;2.13;;;0.90;;
26860;SDS011;37676;46.956;7.430;2022-09-03T07:26:00;1.33;;;0.70;;
26860;SDS011;37676;46.956;7.430;2022-09-03T07:28:28;1.27;;;0.70;;
26860;SDS011;37676;46.956;7.430;2022-09-03T07:31:01;1.40;;;0.70;;
26860;SDS011;37676;46.956;7.430;2022-09-03T07:33:35;2.20;;;0.90;;
26860;SDS011;37676;46.956;7.430;2022-09-03T07:36:02;1.98;;;0.90;;
26860;SDS011;37676;46.956;7.430;2022-09-03T07:38:28;2.60;;;1.00;;
26860;SDS011;37676;46.956;7.430;2022-09-03T07:40:57;2.03;;;1.10;;
26860;SDS011;37676;46.956;7.430;2022-09-03T07:43:24;2.35;;;1.25;;
26860;SDS011;37676;46.956;7.430;2022-09-03T07:45:53;2.08;;;1.08;;
26860;SDS011;37676;46.956;7.430;2022-09-03T07:48:19;2.35;;;1.17;;
26860;SDS011;37676;46.956;7.430;2022-09-03T07:50:44;2.60;;;1.10;;
26860;SDS011;37676;46.956;7.430;2022-09-03T07:53:11;3.25;;;1.08;;
26860;SDS011;37676;46.956;7.430;2022-09-03T07:55:37;1.35;;;0.50;;
26860;SDS011;37676;46.956;7.430;2022-09-03T07:58:02;1.73;;;0.65;;
26860;SDS011;37676;46.956;7.430;2022-09-03T08:00:27;1.88;;;0.80;;
26860;SDS011;37676;46.956;7.430;2022-09-03T08:02:53;2.42;;;1.25;;
26860;SDS011;37676;46.956;7.430;2022-09-03T08:05:18;2.45;;;1.23;;
26860;SDS011;37676;46.956;7.430;2022-09-03T08:07:45;2.30;;;1.10;;
26860;SDS011;37676;46.956;7.430;2022-09-03T08:10:11;2.92;;;1.45;;
26860;SDS011;37676;46.956;7.430;2022-09-03T08:12:37;2.92;;;1.05;;
26860;SDS011;37676;46.956;7.430;2022-09-03T08:15:02;1.70;;;1.00;;
26860;SDS011;37676;46.956;7.430;2022-09-03T08:17:28;2.22;;;1.10;;
26860;SDS011;37676;46.956;7.430;2022-09-03T08:19:53;2.00;;;1.17;;
26860;SDS011;37676;46.956;7.430;2022-09-03T08:22:20;2.08;;;1.00;;
26860;SDS011;37676;46.956;7.430;2022-09-03T08:24:46;2.88;;;1.23;;
26860;SDS011;37676;46.956;7.430;2022-09-03T08:27:12;1.83;;;1.00;;
26860;SDS011;37676;46.956;7.430;2022-09-03T08:29:38;1.60;;;0.80;;
26860;SDS011;37676;46.956;7.430;2022-09-03T08:32:03;1.95;;;0.70;;
26860;SDS011;37676;46.956;7.430;2022-09-03T08:34:29;3.38;;;1.60;;
26860;SDS011;37676;46.956;7.430;2022-09-03T08:36:54;5.07;;;2.72;;
26860;SDS011;37676;46.956;7.430;2022-09-03T08:39:19;3.23;;;1.80;;
26860;SDS011;37676;46.956;7.430;2022-09-03T08:42:10;2.17;;;1.23;;
26860;SDS011;37676;46.956;7.430;2022-09-03T08:44:53;2.30;;;1.05;;
26860;SDS011;37676;46.956;7.430;2022-09-03T08:47:21;2.20;;;1.13;;
26860;SDS011;37676;46.956;7.430;2022-09-03T08:49:53;2.97;;;1.42;;
26860;SDS011;37676;46.956;7.430;2022-09-03T08:55:15;2.65;;;1.30;;
26860;SDS011;37676;46.956;7.430;2022-09-03T08:57:47;1.92;;;1.00;;
26860;SDS011;37676;46.956;7.430;2022-09-03T09:00:15;2.05;;;1.13;;
26860;SDS011;37676;46.956;7.430;2022-09-03T09:05:37;1.20;;;0.70;;
26860;SDS011;37676;46.956;7.430;2022-09-03T09:08:12;1.15;;;0.50;;
26860;SDS011;37676;46.956;7.430;2022-09-03T09:10:46;1.02;;;0.50;;
26860;SDS011;37676;46.956;7.430;2022-09-03T09:13:22;1.80;;;0.50;;
26860;SDS011;37676;46.956;7.430;2022-09-03T09:16:03;0.98;;;0.40;;
26860;SDS011;37676;46.956;7.430;2022-09-03T09:21:15;1.38;;;0.50;;
26860;SDS011;37676;46.956;7.430;2022-09-03T09:23:46;0.90;;;0.50;;
26860;SDS011;37676;46.956;7.430;2022-09-03T09:26:14;0.73;;;0.30;;
26860;SDS011;37676;46.956;7.430;2022-09-03T09:28:41;0.85;;;0.40;;
26860;SDS011;37676;46.956;7.430;2022-09-03T09:31:09;1.85;;;0.90;;
26860;SDS011;37676;46.956;7.430;2022-09-03T09:33:39;0.88;;;0.50;;
26860;SDS011;37676;46.956;7.430;2022-09-03T09:36:06;2.30;;;1.10;;
26860;SDS011;37676;46.956;7.430;2022-09-03T09:38:34;1.00;;;0.57;;
26860;SDS011;37676;46.956;7.430;2022-09-03T09:41:08;1.33;;;0.40;;
26860;SDS011;37676;46.956;7.430;2022-09-03T09:43:35;0.90;;;0.50;;
26860;SDS011;37676;46.956;7.430;2022-09-03T09:46:05;1.83;;;0.70;;
26860;SDS011;37676;46.956;7.430;2022-09-03T09:48:54;1.30;;;0.57;;
26860;SDS011;37676;46.956;7.430;2022-09-03T09:51:22;0.90;;;0.50;;
26860;SDS011;37676;46.956;7.430;2022-09-03T09:56:35;1.65;;;0.70;;
26860;SDS011;37676;46.956;7.430;2022-09-03T09:59:02;1.27;;;0.57;;
26860;SDS011;37676;46.956;7.430;2022-09-03T10:01:28;1.40;;;0.60;;
26860;SDS011;37676;46.956;7.430;2022-09-03T10:03:56;1.67;;;0.55;;
26860;SDS011;37676;46.956;7.430;2022-09-03T10:06:27;1.48;;;0.75;;
26860;SDS011;37676;46.956;7.430;2022-09-03T10:09:14;1.83;;;0.60;;
26860;SDS011;37676;46.956;7.430;2022-09-03T10:11:56;1.00;;;0.57;;
26860;SDS011;37676;46.956;7.430;2022-09-03T10:14:29;0.88;;;0.50;;
26860;SDS011;37676;46.956;7.430;2022-09-03T10:17:09;1.25;;;0.52;;
26860;SDS011;37676;46.956;7.430;2022-09-03T10:22:44;1.27;;;0.50;;
26860;SDS011;37676;46.956;7.430;2022-09-03T10:25:16;1.02;;;0.50;;
26860;SDS011;37676;46.956;7.430;2022-09-03T10:27:43;1.45;;;0.63;;
26860;SDS011;37676;46.956;7.430;2022-09-03T10:30:10;1.45;;;0.70;;
26860;SDS011;37676;46.956;7.430;2022-09-03T10:32:42;1.65;;;0.50;;
26860;SDS011;37676;46.956;7.430;2022-09-03T10:37:57;1.33;;;0.50;;
26860;SDS011;37676;46.956;7.430;2022-09-03T10:46:10;1.02;;;0.50;;
26860;SDS011;37676;46.956;7.430;2022-09-03T10:51:42;1.05;;;0.47;;
26860;SDS011;37676;46.956;7.430;2022-09-03T11:02:18;1.13;;;0.50;;
26860;SDS011;37676;46.956;7.430;2022-09-03T11:04:55;0.82;;;0.50;;
26860;SDS011;37676;46.956;7.430;2022-09-03T11:07:34;1.50;;;0.75;;
26860;SDS011;37676;46.956;7.430;2022-09-03T11:10:10;0.90;;;0.40;;
26860;SDS011;37676;46.956;7.430;2022-09-03T11:12:44;0.95;;;0.50;;
26860;SDS011;37676;46.956;7.430;2022-09-03T11:18:02;0.73;;;0.40;;
26860;SDS011;37676;46.956;7.430;2022-09-03T11:20:36;0.80;;;0.40;;
26860;SDS011;37676;46.956;7.430;2022-09-03T11:23:03;1.27;;;0.52;;
26860;SDS011;37676;46.956;7.430;2022-09-03T11:25:33;0.88;;;0.50;;
26860;SDS011;37676;46.956;7.430;2022-09-03T11:28:06;1.40;;;0.50;;
26860;SDS011;37676;46.956;7.430;2022-09-03T11:33:13;1.17;;;0.57;;
26860;SDS011;37676;46.956;7.430;2022-09-03T11:35:44;0.47;;;0.30;;
26860;SDS011;37676;46.956;7.430;2022-09-03T11:40:56;0.93;;;0.40;;
26860;SDS011;37676;46.956;7.430;2022-09-03T11:48:49;0.85;;;0.40;;
26860;SDS011;37676;46.956;7.430;2022-09-03T11:51:17;0.95;;;0.47;;
26860;SDS011;37676;46.956;7.430;2022-09-03T11:56:27;1.20;;;0.52;;
26860;SDS011;37676;46.956;7.430;2022-09-03T11:59:01;0.82;;;0.47;;
26860;SDS011;37676;46.956;7.430;2022-09-03T12:01:43;1.17;;;0.60;;
26860;SDS011;37676;46.956;7.430;2022-09-03T12:04:16;0.95;;;0.40;;
26860;SDS011;37676;46.956;7.430;2022-09-03T12:06:56;0.88;;;0.47;;
26860;SDS011;37676;46.956;7.430;2022-09-03T12:10:11;0.68;;;0.40;;
26860;SDS011;37676;46.956;7.430;2022-09-03T12:12:54;0.50;;;0.30;;
26860;SDS011;37676;46.956;7.430;2022-09-03T12:18:23;1.45;;;0.60;;
26860;SDS011;37676;46.956;7.430;2022-09-03T12:23:28;1.25;;;0.60;;
26860;SDS011;37676;46.956;7.430;2022-09-03T12:25:59;1.00;;;0.40;;
26860;SDS011;37676;46.956;7.430;2022-09-03T12:31:04;1.77;;;0.40;;
26860;SDS011;37676;46.956;7.430;2022-09-03T12:33:44;0.90;;;0.43;;
26860;SDS011;37676;46.956;7.430;2022-09-03T12:36:09;0.73;;;0.40;;
26860;SDS011;37676;46.956;7.430;2022-09-03T12:38:35;0.80;;;0.40;;
26860;SDS011;37676;46.956;7.430;2022-09-03T12:41:00;0.90;;;0.50;;
26860;SDS011;37676;46.956;7.430;2022-09-03T12:43:26;2.28;;;0.52;;
26860;SDS011;37676;46.956;7.430;2022-09-03T12:45:53;0.63;;;0.40;;
26860;SDS011;37676;46.956;7.430;2022-09-03T12:48:19;1.10;;;0.50;;
26860;SDS011;37676;46.956;7.430;2022-09-03T12:50:45;1.05;;;0.40;;
26860;SDS011;37676;46.956;7.430;2022-09-03T12:53:13;1.40;;;0.65;;
26860;SDS011;37676;46.956;7.430;2022-09-03T12:55:52;1.67;;;0.52;;
26860;SDS011;37676;46.956;7.430;2022-09-03T12:58:24;0.82;;;0.40;;
26860;SDS011;37676;46.956;7.430;2022-09-03T13:04:08;0.70;;;0.40;;
26860;SDS011;37676;46.956;7.430;2022-09-03T13:06:43;1.05;;;0.50;;
26860;SDS011;37676;46.956;7.430;2022-09-03T13:09:19;1.20;;;0.50;;
26860;SDS011;37676;46.956;7.430;2022-09-03T13:11:48;1.95;;;0.40;;
26860;SDS011;37676;46.956;7.430;2022-09-03T13:14:16;0.57;;;0.30;;
26860;SDS011;37676;46.956;7.430;2022-09-03T13:25:03;0.95;;;0.50;;
26860;SDS011;37676;46.956;7.430;2022-09-03T13:29:59;1.05;;;0.30;;
26860;SDS011;37676;46.956;7.430;2022-09-03T13:37:59;1.05;;;0.40;;
26860;SDS011;37676;46.956;7.430;2022-09-03T13:43:24;0.70;;;0.40;;
26860;SDS011;37676;46.956;7.430;2022-09-03T13:45:56;1.13;;;0.50;;
26860;SDS011;37676;46.956;7.430;2022-09-03T13:48:37;0.90;;;0.50;;
26860;SDS011;37676;46.956;7.430;2022-09-03T13:51:27;1.30;;;0.50;;
26860;SDS011;37676;46.956;7.430;2022-09-03T13:56:49;0.88;;;0.43;;
26860;SDS011;37676;46.956;7.430;2022-09-03T13:59:24;0.80;;;0.43;;
26860;SDS011;37676;46.956;7.430;2022-09-03T14:01:57;0.90;;;0.35;;
26860;SDS011;37676;46.956;7.430;2022-09-03T14:05:05;0.50;;;0.30;;
26860;SDS011;37676;46.956;7.430;2022-09-03T14:18:51;0.80;;;0.40;;
26860;SDS011;37676;46.956;7.430;2022-09-03T14:24:13;0.80;;;0.43;;
26860;SDS011;37676;46.956;7.430;2022-09-03T14:26:55;0.85;;;0.50;;
26860;SDS011;37676;46.956;7.430;2022-09-03T14:29:24;0.88;;;0.50;;
26860;SDS011;37676;46.956;7.430;2022-09-03T14:51:29;1.10;;;0.60;;
26860;SDS011;37676;46.956;7.430;2022-09-03T15:07:40;1.02;;;0.60;;
26860;SDS011;37676;46.956;7.430;2022-09-03T15:16:27;1.23;;;0.50;;
26860;SDS011;37676;46.956;7.430;2022-09-03T15:22:07;1.30;;;0.55;;
26860;SDS011;37676;46.956;7.430;2022-09-03T15:24:49;0.60;;;0.30;;
26860;SDS011;37676;46.956;7.430;2022-09-03T15:27:43;0.80;;;0.45;;
26860;SDS011;37676;46.956;7.430;2022-09-03T15:30:34;0.90;;;0.40;;
26860;SDS011;37676;46.956;7.430;2022-09-03T15:33:12;0.70;;;0.40;;
26860;SDS011;37676;46.956;7.430;2022-09-03T15:35:57;0.80;;;0.40;;
26860;SDS011;37676;46.956;7.430;2022-09-03T15:40:56;0.70;;;0.30;;
26860;SDS011;37676;46.956;7.430;2022-09-03T15:43:30;1.02;;;0.38;;
26860;SDS011;37676;46.956;7.430;2022-09-03T15:46:10;0.73;;;0.40;;
26860;SDS011;37676;46.956;7.430;2022-09-03T15:48:58;0.70;;;0.35;;
26860;SDS011;37676;46.956;7.430;2022-09-03T15:51:29;0.98;;;0.40;;
26860;SDS011;37676;46.956;7.430;2022-09-03T15:54:05;0.63;;;0.40;;
26860;SDS011;37676;46.956;7.430;2022-09-03T15:59:18;0.82;;;0.40;;
26860;SDS011;37676;46.956;7.430;2022-09-03T16:01:57;1.50;;;0.68;;
26860;SDS011;37676;46.956;7.430;2022-09-03T16:07:26;2.05;;;0.57;;
26860;SDS011;37676;46.956;7.430;2022-09-03T16:10:14;0.63;;;0.40;;
26860;SDS011;37676;46.956;7.430;2022-09-03T16:15:29;0.68;;;0.40;;
26860;SDS011;37676;46.956;7.430;2022-09-03T16:21:00;0.60;;;0.40;;
26860;SDS011;37676;46.956;7.430;2022-09-03T16:23:36;0.50;;;0.30;;
26860;SDS011;37676;46.956;7.430;2022-09-03T16:26:12;0.40;;;0.20;;
26860;SDS011;37676;46.956;7.430;2022-09-03T16:31:28;1.20;;;0.40;;
26860;SDS011;37676;46.956;7.430;2022-09-03T16:36:43;0.52;;;0.30;;
26860;SDS011;37676;46.956;7.430;2022-09-03T16:42:44;0.50;;;0.30;;
26860;SDS011;37676;46.956;7.430;2022-09-03T16:48:10;0.50;;;0.30;;
26860;SDS011;37676;46.956;7.430;2022-09-03T16:50:55;0.63;;;0.30;;
26860;SDS011;37676;46.956;7.430;2022-09-03T17:07:27;1.05;;;0.40;;
26860;SDS011;37676;46.956;7.430;2022-09-03T17:19:12;1.77;;;0.30;;
26860;SDS011;37676;46.956;7.430;2022-09-03T17:24:28;0.40;;;0.20;;
26860;SDS011;37676;46.956;7.430;2022-09-03T17:27:47;0.70;;;0.30;;
26860;SDS011;37676;46.956;7.430;2022-09-03T17:30:01;0.90;;;0.40;;
26860;SDS011;37676;46.956;7.430;2022-09-03T17:41:19;0.50;;;0.30;;
26860;SDS011;37676;46.956;7.430;2022-09-03T17:43:59;0.50;;;0.30;;
26860;SDS011;37676;46.956;7.430;2022-09-03T17:49:32;0.50;;;0.30;;
26860;SDS011;37676;46.956;7.430;2022-09-03T17:54:59;0.73;;;0.30;;
26860;SDS011;37676;46.956;7.430;2022-09-03T17:57:47;1.40;;;0.50;;
26860;SDS011;37676;46.956;7.430;2022-09-03T18:00:25;0.63;;;0.40;;
26860;SDS011;37676;46.956;7.430;2022-09-03T18:03:00;3.08;;;0.40;;
26860;SDS011;37676;46.956;7.430;2022-09-03T18:05:41;0.82;;;0.50;;
26860;SDS011;37676;46.956;7.430;2022-09-03T18:08:17;1.05;;;0.40;;
26860;SDS011;37676;46.956;7.430;2022-09-03T18:10:59;1.08;;;0.45;;
26860;SDS011;37676;46.956;7.430;2022-09-03T18:13:49;1.20;;;0.50;;
26860;SDS011;37676;46.956;7.430;2022-09-03T18:16:29;1.10;;;0.50;;
26860;SDS011;37676;46.956;7.430;2022-09-03T18:19:11;0.70;;;0.45;;
26860;SDS011;37676;46.956;7.430;2022-09-03T18:21:57;0.60;;;0.30;;
26860;SDS011;37676;46.956;7.430;2022-09-03T18:25:01;1.13;;;0.50;;
26860;SDS011;37676;46.956;7.430;2022-09-03T18:28:05;1.00;;;0.50;;
26860;SDS011;37676;46.956;7.430;2022-09-03T18:30:51;1.20;;;0.50;;
26860;SDS011;37676;46.956;7.430;2022-09-03T18:33:35;1.33;;;0.50;;
26860;SDS011;37676;46.956;7.430;2022-09-03T18:36:19;1.40;;;0.60;;
26860;SDS011;37676;46.956;7.430;2022-09-03T18:39:13;1.50;;;0.60;;
26860;SDS011;37676;46.956;7.430;2022-09-03T18:50:57;1.27;;;0.57;;
26860;SDS011;37676;46.956;7.430;2022-09-03T18:56:42;1.45;;;0.73;;
26860;SDS011;37676;46.956;7.430;2022-09-03T19:02:40;1.75;;;0.60;;
26860;SDS011;37676;46.956;7.430;2022-09-03T19:05:51;1.58;;;0.60;;
26860;SDS011;37676;46.956;7.430;2022-09-03T19:12:06;1.52;;;0.60;;
26860;SDS011;37676;46.956;7.430;2022-09-03T19:15:02;1.10;;;0.45;;
26860;SDS011;37676;46.956;7.430;2022-09-03T19:20:51;1.02;;;0.57;;
26860;SDS011;37676;46.956;7.430;2022-09-03T19:23:38;1.00;;;0.50;;
26860;SDS011;37676;46.956;7.430;2022-09-03T19:46:16;1.45;;;0.70;;
26860;SDS011;37676;46.956;7.430;2022-09-03T19:49:12;1.60;;;0.68;;
26860;SDS011;37676;46.956;7.430;2022-09-03T19:52:04;1.40;;;0.60;;
26860;SDS011;37676;46.956;7.430;2022-09-03T19:54:54;1.92;;;0.63;;
26860;SDS011;37676;46.956;7.430;2022-09-03T19:57:40;1.20;;;0.43;;
26860;SDS011;37676;46.956;7.430;2022-09-03T20:00:27;1.40;;;0.68;;
26860;SDS011;37676;46.956;7.430;2022-09-03T20:03:12;1.58;;;0.60;;
26860;SDS011;37676;46.956;7.430;2022-09-03T20:05:57;1.00;;;0.43;;
26860;SDS011;37676;46.956;7.430;2022-09-03T20:08:43;0.60;;;0.40;;
26860;SDS011;37676;46.956;7.430;2022-09-03T20:11:29;1.05;;;0.43;;
26860;SDS011;37676;46.956;7.430;2022-09-03T20:13:55;1.15;;;0.55;;
26860;SDS011;37676;46.956;7.430;2022-09-03T20:16:40;0.90;;;0.45;;
26860;SDS011;37676;46.956;7.430;2022-09-03T20:30:03;0.77;;;0.40;;
26860;SDS011;37676;46.956;7.430;2022-09-03T20:48:53;0.43;;;0.30;;